Aviation Digital Data Service (ADDS)

Output produced by METARs form (2021 UTC 02 August 2015)
found at http://aviationweather.gov/adds/metars/
 
KEWN 021721Z 0218/0318 21005KT P6SM SKC 
     FM030900 VRB03KT 4SM BR SCT250 
     FM031300 25005KT P6SM OVC120